createdAt,value
2023-04-09T00:02:38.251Z,8.45
2023-04-09T00:05:42.383Z,8.70
2023-04-09T00:08:50.474Z,12.73
2023-04-09T00:11:54.759Z,10.65
2023-04-09T00:14:58.435Z,9.00
2023-04-09T00:18:02.535Z,10.18
2023-04-09T00:21:07.339Z,9.57
2023-04-09T00:24:13.557Z,12.68
2023-04-09T00:27:17.428Z,9.90
2023-04-09T00:30:21.578Z,9.20
2023-04-09T00:33:28.259Z,7.50
2023-04-09T00:36:31.865Z,9.85
2023-04-09T00:39:37.749Z,11.40
2023-04-09T00:42:42.588Z,11.00
2023-04-09T00:45:46.915Z,9.75
2023-04-09T00:48:50.878Z,8.57
2023-04-09T00:51:54.812Z,9.50
2023-04-09T00:55:02.802Z,11.07
2023-04-09T00:58:06.777Z,10.57
2023-04-09T01:01:10.505Z,11.82
2023-04-09T01:04:14.304Z,9.52
2023-04-09T01:07:25.054Z,10.48
2023-04-09T01:10:42.637Z,8.32
2023-04-09T01:13:51.955Z,10.35
2023-04-09T01:17:01.823Z,9.30
2023-04-09T01:20:11.653Z,9.52
2023-04-09T01:23:20.719Z,13.55
2023-04-09T01:26:39.799Z,11.10
2023-04-09T01:29:48.878Z,12.27
2023-04-09T01:32:55.725Z,12.93
2023-04-09T01:36:00.887Z,10.23
2023-04-09T01:39:04.492Z,9.15
2023-04-09T01:42:11.495Z,11.73
2023-04-09T01:45:16.995Z,12.05
2023-04-09T01:48:21.614Z,14.10
2023-04-09T01:51:27.429Z,10.27
2023-04-09T01:54:31.281Z,17.02
2023-04-09T01:57:34.879Z,11.02
2023-04-09T02:00:46.871Z,13.05
2023-04-09T02:03:55.378Z,11.60
2023-04-09T02:07:04.861Z,11.70
2023-04-09T02:10:10.294Z,11.65
2023-04-09T02:13:19.406Z,10.90
2023-04-09T02:16:24.888Z,13.55
2023-04-09T02:19:39.561Z,11.40
2023-04-09T02:22:42.928Z,10.90
2023-04-09T02:25:47.164Z,11.85
2023-04-09T02:28:50.742Z,12.57
2023-04-09T02:31:56.324Z,13.80
2023-04-09T02:34:59.688Z,10.57
2023-04-09T02:38:06.234Z,12.57
2023-04-09T02:41:10.603Z,13.35
2023-04-09T02:44:14.626Z,15.55
2023-04-09T02:47:20.202Z,16.70
2023-04-09T02:50:23.844Z,12.68
2023-04-09T02:53:29.371Z,15.00
2023-04-09T02:56:33.012Z,11.68
2023-04-09T02:59:39.598Z,15.65
2023-04-09T03:02:45.452Z,14.23
2023-04-09T03:05:48.974Z,14.77
2023-04-09T03:08:53.308Z,15.05
2023-04-09T03:11:57.728Z,11.88
2023-04-09T03:15:02.380Z,11.13
2023-04-09T03:18:08.609Z,16.20
2023-04-09T03:21:14.886Z,12.10
2023-04-09T03:24:23.787Z,15.38
2023-04-09T03:27:27.870Z,15.27
2023-04-09T03:30:33.138Z,13.75
2023-04-09T03:35:02.021Z,13.27
2023-04-09T03:38:06.215Z,12.35
2023-04-09T03:41:09.840Z,13.90
2023-04-09T03:44:13.211Z,12.48
2023-04-09T03:47:34.846Z,13.00
2023-04-09T03:50:43.062Z,13.93
2023-04-09T03:53:49.739Z,14.18
2023-04-09T03:56:53.467Z,14.00
2023-04-09T04:00:00.079Z,13.05
2023-04-09T04:03:04.531Z,14.23
2023-04-09T04:06:28.772Z,11.98
2023-04-09T04:09:45.882Z,12.45
2023-04-09T04:12:52.859Z,11.65
2023-04-09T04:16:09.454Z,13.57
2023-04-09T04:19:14.743Z,13.05
2023-04-09T04:22:25.611Z,13.57
2023-04-09T04:25:34.089Z,12.82
2023-04-09T04:28:38.080Z,11.32
2023-04-09T04:31:42.721Z,14.48
2023-04-09T04:34:50.000Z,12.32
2023-04-09T04:38:04.232Z,16.05
2023-04-09T04:41:12.281Z,13.73
2023-04-09T04:44:20.186Z,13.10
2023-04-09T04:47:26.740Z,11.63
2023-04-09T04:50:29.943Z,12.93
2023-04-09T04:53:38.684Z,12.32
2023-04-09T04:56:46.654Z,11.18
2023-04-09T05:00:01.296Z,12.00
2023-04-09T05:03:04.844Z,12.77
2023-04-09T05:06:29.887Z,14.15
2023-04-09T05:09:36.028Z,14.77
2023-04-09T05:12:43.481Z,15.05
2023-04-09T05:15:48.857Z,14.40
2023-04-09T05:18:52.832Z,12.38
2023-04-09T05:21:56.238Z,13.85
2023-04-09T05:25:00.886Z,12.52
2023-04-09T05:28:04.296Z,10.52
2023-04-09T05:31:12.970Z,11.93
2023-04-09T05:34:22.219Z,12.82
2023-04-09T05:37:28.789Z,12.15
2023-04-09T05:40:36.285Z,14.57
2023-04-09T05:43:43.717Z,8.98
2023-04-09T05:46:47.547Z,17.25
2023-04-09T05:49:54.416Z,12.02
2023-04-09T05:52:58.346Z,12.70
2023-04-09T05:56:16.502Z,12.10
2023-04-09T05:59:27.738Z,12.57
2023-04-09T06:02:30.991Z,12.77
2023-04-09T06:05:34.177Z,13.15
2023-04-09T06:08:37.810Z,13.57
2023-04-09T06:11:42.286Z,9.35
2023-04-09T06:14:45.495Z,13.10
2023-04-09T06:17:48.643Z,11.73
2023-04-09T06:20:51.960Z,14.57
2023-04-09T06:23:55.208Z,14.65
2023-04-09T06:26:59.730Z,16.30
2023-04-09T06:30:02.890Z,19.52
2023-04-09T06:33:06.059Z,15.45
2023-04-09T06:36:09.464Z,18.20
2023-04-09T06:39:12.832Z,14.73
2023-04-09T06:42:17.272Z,15.90
2023-04-09T06:45:33.553Z,17.52
2023-04-09T06:48:37.078Z,13.40
2023-04-09T06:51:40.289Z,16.00
2023-04-09T06:54:43.495Z,16.83
2023-04-09T06:57:48.265Z,15.43
2023-04-09T07:00:51.395Z,15.02
2023-04-09T07:03:54.774Z,14.93
2023-04-09T07:06:59.277Z,16.65
2023-04-09T07:10:02.442Z,13.75
2023-04-09T07:13:06.933Z,16.08
2023-04-09T07:16:10.410Z,17.98
2023-04-09T07:19:13.544Z,14.38
2023-04-09T07:22:16.748Z,21.83
2023-04-09T07:25:19.852Z,15.02
2023-04-09T07:28:24.591Z,23.88
2023-04-09T07:31:27.910Z,20.95
2023-04-09T07:34:31.112Z,14.32
2023-04-09T07:37:34.775Z,14.80
2023-04-09T07:40:38.130Z,14.82
2023-04-09T07:43:43.234Z,17.77
2023-04-09T07:46:46.423Z,18.15
2023-04-09T07:49:49.683Z,15.73
2023-04-09T07:52:52.812Z,16.55
2023-04-09T07:55:56.398Z,17.83
2023-04-09T07:59:00.863Z,9.60
2023-04-09T08:02:04.554Z,15.90
2023-04-09T08:05:09.013Z,15.98
2023-04-09T08:08:12.612Z,16.00
2023-04-09T08:11:15.696Z,16.15
2023-04-09T08:14:21.188Z,12.43
2023-04-09T08:17:24.564Z,13.18
2023-04-09T08:20:27.816Z,18.48
2023-04-09T08:23:30.991Z,6.80
2023-04-09T08:26:34.144Z,16.30
2023-04-09T08:29:40.453Z,13.48
2023-04-09T08:32:44.434Z,14.07
2023-04-09T08:35:47.640Z,17.83
2023-04-09T08:38:50.917Z,13.77
2023-04-09T08:41:58.884Z,17.13
2023-04-09T08:48:11.046Z,12.45
2023-04-09T08:51:15.577Z,17.42
2023-04-09T08:54:20.152Z,16.83
2023-04-09T08:57:23.423Z,15.85
2023-04-09T09:00:28.140Z,13.13
2023-04-09T09:03:31.395Z,13.52
2023-04-09T09:06:36.077Z,14.15
2023-04-09T09:09:52.596Z,12.57
2023-04-09T09:12:55.981Z,12.05
2023-04-09T09:16:16.004Z,13.98
2023-04-09T09:19:31.393Z,14.10
2023-04-09T09:22:55.120Z,15.15
2023-04-09T09:25:58.820Z,14.23
2023-04-09T09:29:05.749Z,7.13
2023-04-09T09:35:04.299Z,10.75
2023-04-09T09:38:07.609Z,14.40
2023-04-09T09:41:17.914Z,11.95
2023-04-09T09:44:32.785Z,13.80
2023-04-09T09:47:36.565Z,11.50
2023-04-09T09:50:42.724Z,9.88
2023-04-09T09:53:49.136Z,10.90
2023-04-09T09:56:55.750Z,10.48
2023-04-09T10:00:03.715Z,16.30
2023-04-09T10:03:21.113Z,13.77
2023-04-09T10:06:26.382Z,12.50
2023-04-09T10:09:30.091Z,10.90
2023-04-09T10:12:34.683Z,20.40
2023-04-09T10:15:38.329Z,13.88
2023-04-09T10:18:43.664Z,13.70
2023-04-09T10:21:54.673Z,11.73
2023-04-09T10:24:58.052Z,13.82
2023-04-09T10:28:02.232Z,11.63
2023-04-09T10:31:06.620Z,12.82
2023-04-09T10:34:10.956Z,12.25
2023-04-09T10:37:17.971Z,12.15
2023-04-09T10:40:22.402Z,14.93
2023-04-09T10:43:25.608Z,10.52
2023-04-09T10:46:30.429Z,10.23
2023-04-09T10:49:37.966Z,10.13
2023-04-09T10:52:44.187Z,6.18
2023-04-09T10:55:50.542Z,11.13
2023-04-09T10:58:54.358Z,10.38
2023-04-09T11:01:57.723Z,9.75
2023-04-09T11:05:08.042Z,11.30
2023-04-09T11:08:13.900Z,6.97
2023-04-09T11:11:17.068Z,7.78
2023-04-09T11:14:21.543Z,9.73
2023-04-09T11:17:24.755Z,6.63
2023-04-09T11:20:27.962Z,6.78
2023-04-09T11:23:33.124Z,6.57
2023-04-09T11:26:37.475Z,9.32
2023-04-09T11:29:40.682Z,6.40
2023-04-09T11:32:43.917Z,6.35
2023-04-09T11:35:47.369Z,7.07
2023-04-09T11:38:52.472Z,5.60
2023-04-09T11:41:57.817Z,5.65
2023-04-09T11:45:01.940Z,5.80
2023-04-09T11:48:05.727Z,6.00
2023-04-09T11:51:09.064Z,4.32
2023-04-09T11:54:14.117Z,6.45
2023-04-09T11:57:18.056Z,5.07
2023-04-09T12:00:21.681Z,7.93
2023-04-09T12:03:33.866Z,6.47
2023-04-09T12:06:41.748Z,6.45
2023-04-09T12:09:50.239Z,6.38
2023-04-09T12:12:53.375Z,7.15
2023-04-09T12:15:58.741Z,7.10
2023-04-09T12:19:02.660Z,5.47
2023-04-09T12:22:06.241Z,8.45
2023-04-09T12:25:11.370Z,5.20
2023-04-09T12:28:18.131Z,6.07
2023-04-09T12:31:21.658Z,7.43
2023-04-09T12:34:24.775Z,5.57
2023-04-09T12:37:28.796Z,4.75
2023-04-09T12:40:36.881Z,6.13
2023-04-09T12:43:40.188Z,4.72
2023-04-09T12:46:43.513Z,6.20
2023-04-09T12:49:46.747Z,5.70
2023-04-09T12:52:49.883Z,4.90
2023-04-09T12:55:54.581Z,5.50
2023-04-09T12:58:57.718Z,5.32
2023-04-09T13:02:01.091Z,6.95
2023-04-09T13:05:05.110Z,6.05
2023-04-09T13:08:08.213Z,5.05
2023-04-09T13:11:12.703Z,7.07
2023-04-09T13:14:16.104Z,5.70
2023-04-09T13:17:19.336Z,5.40
2023-04-09T13:20:22.642Z,7.07
2023-04-09T13:23:25.915Z,5.22
2023-04-09T13:26:31.224Z,3.80
2023-04-09T13:29:34.422Z,6.75
2023-04-09T13:32:37.753Z,5.78
2023-04-09T13:35:41.002Z,7.10
2023-04-09T13:38:44.176Z,5.70
2023-04-09T13:41:48.759Z,6.10
2023-04-09T13:44:51.869Z,4.63
2023-04-09T13:47:55.117Z,5.00
2023-04-09T13:50:58.272Z,6.28
2023-04-09T13:54:02.770Z,6.00
2023-04-09T13:57:10.257Z,7.28
2023-04-09T14:00:14.650Z,2.88
2023-04-09T14:03:18.084Z,5.70
2023-04-09T14:06:21.390Z,8.55
2023-04-09T14:09:24.518Z,5.78
2023-04-09T14:12:29.047Z,7.15
2023-04-09T14:15:32.422Z,5.25
2023-04-09T14:18:35.705Z,7.63
2023-04-09T14:21:39.711Z,6.50
2023-04-09T14:24:43.428Z,6.22
2023-04-09T14:27:48.358Z,6.43
2023-04-09T14:30:51.512Z,7.88
2023-04-09T14:33:54.817Z,6.50
2023-04-09T14:36:58.104Z,5.55
2023-04-09T14:40:01.376Z,5.22
2023-04-09T14:43:06.028Z,5.63
2023-04-09T14:46:11.810Z,6.40
2023-04-09T14:49:15.370Z,7.18
2023-04-09T14:52:19.285Z,3.00
2023-04-09T14:55:22.468Z,5.63
2023-04-09T14:58:27.050Z,8.13
2023-04-09T15:01:32.537Z,6.40
2023-04-09T15:04:36.355Z,7.85
2023-04-09T15:07:39.750Z,6.28
2023-04-09T15:10:43.356Z,13.00
2023-04-09T15:13:47.830Z,6.93
2023-04-09T15:16:51.682Z,6.00
2023-04-09T15:19:54.932Z,8.27
2023-04-09T15:22:58.085Z,5.13
2023-04-09T15:26:01.333Z,7.18
2023-04-09T15:29:08.644Z,4.97
2023-04-09T15:35:01.867Z,6.70
2023-04-09T15:38:05.221Z,5.40
2023-04-09T15:41:08.400Z,2.83
2023-04-09T15:44:11.646Z,6.00
2023-04-09T15:47:15.154Z,6.45
2023-04-09T15:50:19.671Z,5.47
2023-04-09T15:53:26.571Z,5.57
2023-04-09T15:56:29.828Z,4.20
2023-04-09T15:59:33.285Z,6.68
2023-04-09T16:02:38.615Z,6.45
2023-04-09T16:05:43.324Z,8.00
2023-04-09T16:08:46.721Z,6.47
2023-04-09T16:11:50.924Z,7.28
2023-04-09T16:14:54.471Z,5.20
2023-04-09T16:17:57.747Z,6.40
2023-04-09T16:21:02.785Z,6.63
2023-04-09T16:24:06.018Z,9.82
2023-04-09T16:27:09.210Z,6.68
2023-04-09T16:30:13.063Z,5.30
2023-04-09T16:33:16.204Z,5.10
2023-04-09T16:36:20.785Z,6.85
2023-04-09T16:39:24.054Z,5.68
2023-04-09T16:42:27.742Z,6.00
2023-04-09T16:45:32.001Z,6.45
2023-04-09T16:48:37.082Z,8.00
2023-04-09T16:51:41.688Z,7.60
2023-04-09T16:54:44.903Z,6.57
2023-04-09T16:57:48.202Z,5.78
2023-04-09T17:00:52.030Z,6.15
2023-04-09T17:03:56.416Z,6.88
2023-04-09T17:07:00.933Z,8.85
2023-04-09T17:10:04.148Z,7.03
2023-04-09T17:13:07.593Z,6.53
2023-04-09T17:16:11.717Z,6.75
2023-04-09T17:19:14.864Z,7.38
2023-04-09T17:22:19.337Z,7.53
2023-04-09T17:25:22.597Z,6.20
2023-04-09T17:28:25.829Z,6.40
2023-04-09T17:31:29.066Z,8.95
2023-04-09T17:34:32.239Z,7.20
2023-04-09T17:37:37.619Z,6.85
2023-04-09T17:40:40.947Z,8.88
2023-04-09T17:43:44.364Z,8.82
2023-04-09T17:46:47.579Z,7.10
2023-04-09T17:49:50.703Z,6.45
2023-04-09T17:52:56.608Z,5.60
2023-04-09T17:55:59.709Z,9.70
2023-04-09T17:59:02.960Z,7.78
2023-04-09T18:02:06.472Z,5.93
2023-04-09T18:05:10.783Z,11.35
2023-04-09T18:08:17.407Z,9.05
2023-04-09T18:11:21.081Z,8.40
2023-04-09T18:14:24.662Z,9.93
2023-04-09T18:17:27.868Z,8.18
2023-04-09T18:20:31.036Z,9.85
2023-04-09T18:23:36.034Z,11.40
2023-04-09T18:26:39.159Z,14.27
2023-04-09T18:29:42.388Z,13.13
2023-04-09T18:32:48.118Z,7.68
2023-04-09T18:35:51.406Z,9.07
2023-04-09T18:38:57.809Z,9.85
2023-04-09T18:42:01.620Z,8.77
2023-04-09T18:45:05.361Z,10.65
2023-04-09T18:48:08.895Z,8.70
2023-04-09T18:51:12.206Z,9.70
2023-04-09T18:54:16.644Z,17.38
2023-04-09T18:57:20.053Z,16.33
2023-04-09T19:00:23.199Z,12.93
2023-04-09T19:03:28.679Z,12.10
2023-04-09T19:06:35.901Z,11.35
2023-04-09T19:09:41.636Z,11.27
2023-04-09T19:12:50.878Z,12.43
2023-04-09T19:15:54.172Z,13.23
2023-04-09T19:18:57.671Z,11.52
2023-04-09T19:22:01.593Z,12.10
2023-04-09T19:25:07.626Z,17.00
2023-04-09T19:28:11.484Z,15.55
2023-04-09T19:31:15.103Z,10.70
2023-04-09T19:34:18.246Z,12.13
2023-04-09T19:37:24.158Z,13.77
2023-04-09T19:40:34.593Z,11.30
2023-04-09T19:43:39.314Z,12.00
2023-04-09T19:46:42.756Z,9.15
2023-04-09T19:49:45.949Z,9.32
2023-04-09T19:52:49.255Z,10.10
2023-04-09T19:55:53.815Z,8.43
2023-04-09T19:58:56.948Z,11.38
2023-04-09T20:02:00.662Z,11.05
2023-04-09T20:05:04.033Z,8.57
2023-04-09T20:08:10.999Z,9.95
2023-04-09T20:11:18.551Z,15.65
2023-04-09T20:14:21.987Z,15.70
2023-04-09T20:17:25.517Z,13.63
2023-04-09T20:20:28.725Z,14.27
2023-04-09T20:23:31.924Z,12.15
2023-04-09T20:26:36.423Z,12.90
2023-04-09T20:29:39.740Z,12.65
2023-04-09T20:32:42.961Z,16.20
2023-04-09T20:35:46.657Z,15.68
2023-04-09T20:38:49.860Z,20.02
2023-04-09T20:41:55.014Z,19.83
2023-04-09T20:45:00.222Z,25.20
2023-04-09T20:48:05.014Z,19.10
2023-04-09T20:51:10.604Z,16.73
2023-04-09T20:54:13.779Z,17.20
2023-04-09T20:57:18.608Z,17.48
2023-04-09T21:00:22.183Z,21.52
2023-04-09T21:03:25.476Z,15.88
2023-04-09T21:06:29.072Z,15.75
2023-04-09T21:09:32.229Z,17.27
2023-04-09T21:12:36.800Z,16.52
2023-04-09T21:15:40.368Z,19.10
2023-04-09T21:18:43.969Z,22.50
2023-04-09T21:21:47.132Z,17.42
2023-04-09T21:24:52.510Z,19.65
2023-04-09T21:27:57.026Z,16.10
2023-04-09T21:35:00.543Z,13.57
2023-04-09T21:38:04.525Z,16.92
2023-04-09T21:41:08.550Z,16.73
2023-04-09T21:44:12.133Z,18.75
2023-04-09T21:47:16.042Z,16.35
2023-04-09T21:50:21.117Z,15.55
2023-04-09T21:53:24.320Z,18.23
2023-04-09T21:56:27.700Z,16.80
2023-04-09T21:59:31.123Z,17.23
2023-04-09T22:02:35.063Z,14.98
2023-04-09T22:05:39.772Z,16.85
2023-04-09T22:08:55.362Z,18.52
2023-04-09T22:12:00.406Z,15.27
2023-04-09T22:15:05.901Z,17.73
2023-04-09T22:18:09.632Z,15.88
2023-04-09T22:21:16.771Z,23.10
2023-04-09T22:24:21.580Z,17.17
2023-04-09T22:27:24.882Z,15.95
2023-04-09T22:30:29.153Z,20.98
2023-04-09T22:33:32.714Z,18.50
2023-04-09T22:36:37.573Z,22.67
2023-04-09T22:39:41.015Z,28.42
2023-04-09T22:42:47.035Z,20.08
2023-04-09T22:45:54.528Z,15.82
2023-04-09T22:49:04.587Z,16.42
2023-04-09T22:52:10.582Z,11.05
2023-04-09T22:55:13.954Z,19.65
2023-04-09T22:58:17.502Z,14.70
2023-04-09T23:01:22.396Z,17.23
2023-04-09T23:04:26.246Z,14.05
2023-04-09T23:07:31.135Z,17.17
2023-04-09T23:10:35.195Z,15.27
2023-04-09T23:13:38.796Z,14.23
2023-04-09T23:16:42.177Z,16.50
2023-04-09T23:19:46.065Z,16.67
2023-04-09T23:22:51.118Z,13.30
2023-04-09T23:25:55.137Z,14.63
2023-04-09T23:28:58.497Z,15.27
2023-04-09T23:32:03.026Z,14.30
2023-04-09T23:35:07.532Z,16.83
2023-04-09T23:38:12.429Z,16.50
2023-04-09T23:41:16.014Z,19.27
2023-04-09T23:44:19.523Z,20.33
2023-04-09T23:47:22.901Z,15.90
2023-04-09T23:50:28.644Z,14.57
2023-04-09T23:53:33.569Z,17.83
2023-04-09T23:56:37.561Z,13.55
2023-04-09T23:59:40.777Z,11.10
